createdAt,value
2019-04-25T00:02:36.753Z,6.60
2019-04-25T00:05:10.951Z,6.13
2019-04-25T00:07:42.466Z,6.73
2019-04-25T00:10:13.794Z,6.40
2019-04-25T00:12:44.478Z,5.70
2019-04-25T00:15:14.086Z,6.73
2019-04-25T00:17:44.540Z,6.20
2019-04-25T00:20:14.623Z,5.97
2019-04-25T00:23:05.227Z,8.37
2019-04-25T00:25:52.791Z,7.03
2019-04-25T00:28:22.305Z,6.10
2019-04-25T00:30:52.276Z,6.83
2019-04-25T00:33:22.363Z,7.23
2019-04-25T00:35:52.709Z,6.77
2019-04-25T00:38:22.248Z,7.40
2019-04-25T00:40:53.525Z,7.20
2019-04-25T00:43:22.916Z,6.93
2019-04-25T00:45:52.710Z,6.73
2019-04-25T00:48:22.372Z,6.60
2019-04-25T00:50:54.477Z,6.10
2019-04-25T00:53:22.797Z,6.93
2019-04-25T00:55:52.866Z,6.80
2019-04-25T00:58:35.296Z,6.30
2019-04-25T01:01:38.819Z,6.33
2019-04-25T01:04:08.172Z,6.27
2019-04-25T01:06:37.534Z,6.67
2019-04-25T01:09:12.471Z,6.40
2019-04-25T01:11:42.399Z,5.97
2019-04-25T01:14:11.980Z,6.30
2019-04-25T01:16:41.758Z,6.80
2019-04-25T01:19:11.121Z,6.70
2019-04-25T01:21:40.436Z,6.00
2019-04-25T01:24:10.169Z,6.83
2019-04-25T01:26:39.449Z,6.90
2019-04-25T01:29:09.119Z,7.00
2019-04-25T01:31:38.604Z,6.50
2019-04-25T01:34:10.736Z,6.00
2019-04-25T01:37:19.015Z,6.00
2019-04-25T01:39:59.304Z,6.17
2019-04-25T01:43:03.742Z,6.37
2019-04-25T01:45:34.394Z,6.57
2019-04-25T01:48:04.044Z,6.60
2019-04-25T01:50:35.230Z,6.17
2019-04-25T01:53:04.411Z,6.00
2019-04-25T01:55:33.778Z,6.40
2019-04-25T01:58:03.885Z,7.13
2019-04-25T02:00:39.283Z,7.07
2019-04-25T02:03:08.706Z,6.50
2019-04-25T02:05:38.054Z,6.73
2019-04-25T02:08:07.486Z,7.30
2019-04-25T02:10:36.841Z,7.00
2019-04-25T02:13:08.420Z,6.67
2019-04-25T02:15:37.694Z,6.80
2019-04-25T02:18:07.020Z,8.20
2019-04-25T02:20:36.345Z,7.80
2019-04-25T02:23:05.695Z,6.80
2019-04-25T02:25:34.980Z,7.13
2019-04-25T02:28:05.668Z,7.50
2019-04-25T02:30:35.767Z,7.10
2019-04-25T02:33:09.006Z,6.77
2019-04-25T02:35:36.163Z,7.57
2019-04-25T02:38:08.821Z,8.00
2019-04-25T02:40:36.662Z,7.80
2019-04-25T02:43:07.905Z,7.27
2019-04-25T02:46:08.632Z,8.40
2019-04-25T02:49:29.947Z,8.73
2019-04-25T02:52:12.808Z,8.13
2019-04-25T02:54:39.217Z,7.30
2019-04-25T02:57:08.445Z,7.73
2019-04-25T02:59:38.007Z,7.50
2019-04-25T03:02:09.201Z,7.50
2019-04-25T03:04:38.818Z,7.27
2019-04-25T03:07:11.073Z,8.63
2019-04-25T03:09:40.250Z,8.77
2019-04-25T03:12:09.611Z,8.23
2019-04-25T03:14:39.039Z,8.80
2019-04-25T03:17:09.922Z,8.73
2019-04-25T03:19:59.886Z,8.23
2019-04-25T03:22:30.405Z,8.73
2019-04-25T03:25:00.269Z,8.53
2019-04-25T03:27:30.718Z,9.40
2019-04-25T03:29:59.990Z,8.53
2019-04-25T03:32:29.522Z,8.67
2019-04-25T03:34:58.839Z,7.97
2019-04-25T03:37:28.139Z,8.23
2019-04-25T03:39:57.416Z,8.63
2019-04-25T03:42:26.661Z,8.27
2019-04-25T03:44:55.924Z,8.70
2019-04-25T03:47:25.177Z,9.23
2019-04-25T03:49:55.436Z,7.83
2019-04-25T03:52:24.860Z,8.67
2019-04-25T03:54:56.729Z,8.90
2019-04-25T03:57:25.468Z,8.07
2019-04-25T03:59:54.720Z,9.67
2019-04-25T04:02:25.122Z,9.33
2019-04-25T04:04:54.463Z,8.53
2019-04-25T04:07:23.951Z,8.63
2019-04-25T04:09:54.964Z,7.87
2019-04-25T04:12:24.529Z,9.30
2019-04-25T04:14:53.901Z,8.67
2019-04-25T04:17:35.981Z,8.80
2019-04-25T04:20:37.130Z,9.00
2019-04-25T04:23:14.377Z,9.13
2019-04-25T04:25:43.825Z,10.27
2019-04-25T04:28:14.086Z,9.90
2019-04-25T04:30:45.425Z,8.90
2019-04-25T04:33:26.675Z,8.43
2019-04-25T04:35:47.639Z,9.70
2019-04-25T04:38:16.858Z,9.13
2019-04-25T04:40:46.149Z,10.00
2019-04-25T04:43:16.505Z,9.33
2019-04-25T04:45:45.869Z,9.20
2019-04-25T04:48:16.652Z,9.93
2019-04-25T04:50:46.045Z,9.43
2019-04-25T04:53:16.039Z,8.77
2019-04-25T04:55:45.615Z,8.17
2019-04-25T04:58:16.110Z,8.07
2019-04-25T05:00:46.326Z,9.27
2019-04-25T05:03:26.684Z,9.57
2019-04-25T05:06:17.761Z,8.03
2019-04-25T05:08:50.186Z,8.40
2019-04-25T05:11:19.929Z,8.30
2019-04-25T05:13:49.456Z,8.50
2019-04-25T05:16:19.759Z,9.57
2019-04-25T05:18:49.130Z,10.00
2019-04-25T05:21:18.459Z,8.97
2019-04-25T05:23:47.763Z,8.50
2019-04-25T05:26:17.232Z,8.07
2019-04-25T05:28:46.545Z,7.63
2019-04-25T05:31:37.885Z,7.97
2019-04-25T05:34:07.126Z,7.60
2019-04-25T05:36:39.447Z,7.73
2019-04-25T05:39:10.597Z,8.57
2019-04-25T05:41:59.663Z,7.87
2019-04-25T05:44:30.219Z,7.87
2019-04-25T05:46:59.502Z,8.30
2019-04-25T05:49:28.840Z,8.60
2019-04-25T05:51:58.094Z,8.87
2019-04-25T05:54:27.481Z,9.90
2019-04-25T05:56:56.831Z,10.57
2019-04-25T05:59:26.921Z,10.47
2019-04-25T06:01:56.306Z,10.27
2019-04-25T06:04:25.903Z,8.97
2019-04-25T06:06:55.335Z,9.73
2019-04-25T06:09:54.404Z,10.33
2019-04-25T06:12:34.094Z,8.63
2019-04-25T06:15:03.514Z,8.13
2019-04-25T06:17:53.370Z,8.98
2019-04-25T06:20:24.909Z,9.15
2019-04-25T06:23:11.004Z,7.60
2019-04-25T06:25:40.342Z,8.28
2019-04-25T06:28:13.636Z,7.08
2019-04-25T06:30:44.310Z,7.20
2019-04-25T06:33:15.026Z,7.50
2019-04-25T06:35:44.411Z,7.60
2019-04-25T06:38:13.693Z,6.97
2019-04-25T06:40:43.714Z,7.03
2019-04-25T06:43:13.634Z,7.33
2019-04-25T06:45:51.536Z,7.90
2019-04-25T06:48:27.104Z,7.42
2019-04-25T06:50:57.232Z,7.60
2019-04-25T06:53:26.954Z,7.60
2019-04-25T06:55:56.323Z,8.38
2019-04-25T06:58:27.178Z,8.03
2019-04-25T07:01:00.644Z,8.40
2019-04-25T07:03:27.634Z,7.37
2019-04-25T07:05:57.011Z,7.65
2019-04-25T07:08:26.915Z,7.55
2019-04-25T07:10:57.083Z,7.55
2019-04-25T07:13:27.045Z,7.58
2019-04-25T07:15:56.475Z,7.17
2019-04-25T07:18:30.529Z,7.75
2019-04-25T07:20:56.804Z,7.67
2019-04-25T07:23:26.615Z,8.30
2019-04-25T07:26:07.066Z,7.95
2019-04-25T07:28:58.201Z,9.13
2019-04-25T07:31:50.831Z,8.23
2019-04-25T07:34:22.115Z,8.15
2019-04-25T07:36:51.550Z,9.25
2019-04-25T07:39:20.863Z,9.00
2019-04-25T07:41:50.326Z,8.38
2019-04-25T07:44:22.008Z,8.10
2019-04-25T07:46:50.708Z,7.50
2019-04-25T07:49:20.600Z,7.95
2019-04-25T07:51:53.656Z,7.70
2019-04-25T07:54:23.970Z,7.55
2019-04-25T07:56:55.066Z,6.95
2019-04-25T07:59:25.297Z,7.40
2019-04-25T08:01:54.715Z,7.70
2019-04-25T08:04:24.030Z,7.08
2019-04-25T08:06:54.270Z,6.80
2019-04-25T08:09:24.768Z,6.78
2019-04-25T08:11:54.941Z,7.08
2019-04-25T08:14:34.194Z,6.97
2019-04-25T08:17:04.150Z,6.62
2019-04-25T08:19:34.392Z,7.12
2019-04-25T08:22:04.992Z,7.83
2019-04-25T08:24:37.117Z,7.22
2019-04-25T08:27:09.326Z,7.60
2019-04-25T08:29:39.732Z,7.40
2019-04-25T08:32:09.212Z,9.93
2019-04-25T08:34:38.660Z,7.33
2019-04-25T08:37:18.064Z,6.80
2019-04-25T08:39:39.805Z,6.72
2019-04-25T08:42:10.319Z,5.47
2019-04-25T08:44:39.587Z,5.60
2019-04-25T08:47:08.982Z,5.78
2019-04-25T08:49:45.998Z,6.30
2019-04-25T08:52:15.541Z,6.45
2019-04-25T08:54:58.977Z,6.03
2019-04-25T08:57:46.426Z,5.42
2019-04-25T09:00:25.259Z,6.70
2019-04-25T09:02:58.674Z,5.60
2019-04-25T09:05:40.382Z,5.50
2019-04-25T09:08:10.216Z,5.72
2019-04-25T09:10:40.212Z,5.65
2019-04-25T09:13:13.508Z,5.50
2019-04-25T09:15:46.454Z,4.58
2019-04-25T09:18:15.728Z,5.40
2019-04-25T09:20:48.145Z,4.95
2019-04-25T09:23:20.638Z,5.03
2019-04-25T09:25:49.994Z,4.78
2019-04-25T09:28:19.494Z,5.08
2019-04-25T09:30:51.878Z,5.95
2019-04-25T09:33:39.163Z,4.85
2019-04-25T09:36:10.575Z,4.80
2019-04-25T09:38:40.938Z,4.90
2019-04-25T09:41:10.463Z,5.55
2019-04-25T09:43:40.335Z,5.30
2019-04-25T09:46:21.261Z,5.12
2019-04-25T09:49:10.612Z,4.37
2019-04-25T09:51:45.784Z,4.40
2019-04-25T09:54:48.127Z,3.90
2019-04-25T09:57:38.948Z,3.85
2019-04-25T10:00:18.928Z,4.70
2019-04-25T10:02:50.412Z,4.37
2019-04-25T10:05:20.957Z,3.90
2019-04-25T10:07:50.751Z,3.58
2019-04-25T10:10:20.010Z,4.65
2019-04-25T10:12:49.985Z,3.65
2019-04-25T10:15:44.712Z,4.35
2019-04-25T10:18:15.874Z,3.80
2019-04-25T10:20:46.308Z,4.55
2019-04-25T10:23:15.855Z,4.22
2019-04-25T10:25:48.580Z,4.28
2019-04-25T10:28:18.052Z,3.70
2019-04-25T10:30:49.164Z,3.77
2019-04-25T10:33:20.182Z,7.35
2019-04-25T10:35:55.900Z,4.65
2019-04-25T10:38:20.477Z,5.80
2019-04-25T10:40:50.794Z,3.58
2019-04-25T10:43:21.692Z,3.55
2019-04-25T10:45:51.235Z,3.60
2019-04-25T10:48:24.137Z,3.75
2019-04-25T10:50:55.622Z,3.83
2019-04-25T10:53:25.166Z,4.30
2019-04-25T10:55:58.292Z,3.60
2019-04-25T10:58:27.655Z,3.75
2019-04-25T11:00:57.272Z,3.50
2019-04-25T11:03:49.916Z,3.50
2019-04-25T11:06:24.444Z,3.47
2019-04-25T11:08:56.299Z,4.03
2019-04-25T11:11:24.908Z,3.87
2019-04-25T11:13:57.399Z,3.83
2019-04-25T11:16:26.933Z,3.72
2019-04-25T11:18:56.721Z,3.33
2019-04-25T11:21:25.984Z,3.60
2019-04-25T11:23:55.576Z,3.40
2019-04-25T11:26:25.729Z,5.40
2019-04-25T11:28:54.998Z,3.50
2019-04-25T11:31:28.986Z,3.80
2019-04-25T11:33:58.358Z,3.50
2019-04-25T11:36:27.607Z,4.03
2019-04-25T11:39:34.200Z,3.00
2019-04-25T11:42:06.363Z,3.30
2019-04-25T11:44:35.998Z,2.95
2019-04-25T11:47:06.919Z,3.50
2019-04-25T11:49:36.865Z,5.80
2019-04-25T11:52:06.921Z,2.20
2019-04-25T11:54:36.364Z,2.00
2019-04-25T11:57:07.326Z,1.82
2019-04-25T11:59:37.940Z,2.00
2019-04-25T12:02:09.841Z,1.92
2019-04-25T12:04:39.278Z,2.15
2019-04-25T12:07:09.534Z,2.50
2019-04-25T12:09:39.181Z,2.77
2019-04-25T12:12:09.797Z,3.27
2019-04-25T12:14:39.053Z,2.30
2019-04-25T12:17:08.382Z,2.80
2019-04-25T12:19:38.171Z,2.67
2019-04-25T12:22:07.955Z,5.03
2019-04-25T12:24:40.060Z,5.10
2019-04-25T12:27:09.502Z,3.25
2019-04-25T12:29:39.340Z,2.60
2019-04-25T12:32:10.401Z,2.50
2019-04-25T12:34:40.118Z,2.85
2019-04-25T12:37:09.495Z,2.35
2019-04-25T12:39:38.962Z,2.87
2019-04-25T12:42:08.733Z,3.45
2019-04-25T12:45:06.103Z,2.85
2019-04-25T12:47:38.999Z,3.02
2019-04-25T12:50:08.961Z,2.60
2019-04-25T12:52:39.246Z,2.60
2019-04-25T12:55:09.574Z,3.02
2019-04-25T12:57:40.038Z,2.72
2019-04-25T13:00:10.713Z,3.08
2019-04-25T13:02:40.056Z,2.75
2019-04-25T13:05:10.698Z,2.58
2019-04-25T13:07:43.006Z,2.60
2019-04-25T13:10:15.378Z,3.75
2019-04-25T13:12:44.882Z,2.80
2019-04-25T13:15:14.592Z,3.10
2019-04-25T13:17:43.918Z,2.70
2019-04-25T13:20:13.608Z,3.52
2019-04-25T13:22:43.334Z,2.77
2019-04-25T13:25:14.958Z,3.10
2019-04-25T13:28:05.568Z,4.47
2019-04-25T13:31:03.987Z,4.05
2019-04-25T13:33:57.205Z,3.00
2019-04-25T13:36:27.328Z,3.02
2019-04-25T13:38:57.174Z,3.37
2019-04-25T13:41:27.175Z,3.45
2019-04-25T13:43:56.632Z,3.42
2019-04-25T13:46:27.689Z,3.12
2019-04-25T13:48:57.166Z,3.42
2019-04-25T13:51:26.743Z,4.45
2019-04-25T13:53:56.460Z,3.30
2019-04-25T13:56:27.445Z,3.30
2019-04-25T13:58:56.943Z,3.17
2019-04-25T14:01:27.643Z,3.00
2019-04-25T14:04:00.806Z,3.47
2019-04-25T14:06:32.429Z,2.98
2019-04-25T14:09:07.736Z,3.55
2019-04-25T14:11:37.043Z,3.77
2019-04-25T14:14:06.574Z,3.02
2019-04-25T14:17:07.358Z,3.55
2019-04-25T14:20:05.293Z,2.92
2019-04-25T14:22:34.702Z,3.37
2019-04-25T14:25:05.324Z,3.10
2019-04-25T14:27:34.582Z,3.37
2019-04-25T14:30:04.535Z,2.90
2019-04-25T14:32:35.101Z,3.12
2019-04-25T14:35:04.569Z,3.30
2019-04-25T14:37:39.466Z,3.27
2019-04-25T14:40:06.961Z,3.30
2019-04-25T14:42:38.277Z,3.37
2019-04-25T14:45:08.179Z,3.02
2019-04-25T14:47:37.815Z,2.60
2019-04-25T14:50:07.098Z,2.90
2019-04-25T14:52:38.712Z,2.35
2019-04-25T14:55:27.988Z,2.87
2019-04-25T14:57:58.714Z,2.75
2019-04-25T15:00:34.903Z,2.70
2019-04-25T15:03:04.659Z,2.47
2019-04-25T15:05:34.822Z,2.65
2019-04-25T15:08:04.394Z,2.45
2019-04-25T15:10:34.092Z,2.65
2019-04-25T15:13:04.515Z,2.83
2019-04-25T15:15:33.868Z,2.70
2019-04-25T15:18:04.191Z,2.70
2019-04-25T15:20:34.361Z,2.80
2019-04-25T15:23:03.821Z,2.30
2019-04-25T15:25:33.579Z,2.52
2019-04-25T15:28:03.027Z,2.70
2019-04-25T15:30:36.973Z,2.67
2019-04-25T15:33:07.466Z,2.77
2019-04-25T15:35:47.223Z,2.52
2019-04-25T15:38:25.421Z,2.50
2019-04-25T15:41:04.586Z,2.40
2019-04-25T15:43:49.098Z,2.42
2019-04-25T15:46:22.243Z,2.50
2019-04-25T15:48:52.464Z,2.22
2019-04-25T15:51:22.051Z,2.45
2019-04-25T15:53:51.439Z,2.40
2019-04-25T15:56:20.725Z,2.40
2019-04-25T15:58:50.033Z,2.58
2019-04-25T16:01:20.357Z,2.75
2019-04-25T16:03:52.369Z,2.75
2019-04-25T16:06:20.673Z,2.92
2019-04-25T16:08:49.939Z,2.60
2019-04-25T16:11:19.316Z,2.05
2019-04-25T16:13:48.638Z,2.40
2019-04-25T16:16:17.954Z,2.83
2019-04-25T16:18:47.208Z,2.50
2019-04-25T16:21:16.580Z,2.47
2019-04-25T16:23:46.204Z,2.90
2019-04-25T16:26:15.519Z,2.40
2019-04-25T16:28:45.901Z,2.52
2019-04-25T16:31:18.340Z,2.58
2019-04-25T16:33:47.641Z,2.45
2019-04-25T16:36:17.359Z,2.80
2019-04-25T16:38:46.633Z,2.22
2019-04-25T16:41:16.325Z,2.58
2019-04-25T16:43:49.010Z,2.27
2019-04-25T16:46:19.083Z,2.92
2019-04-25T16:48:48.387Z,2.25
2019-04-25T16:51:18.066Z,2.60
2019-04-25T16:53:47.431Z,2.45
2019-04-25T16:56:16.682Z,2.75
2019-04-25T16:58:46.005Z,2.52
2019-04-25T17:01:15.806Z,2.70
2019-04-25T17:03:45.179Z,2.77
2019-04-25T17:06:14.786Z,2.70
2019-04-25T17:08:44.045Z,2.37
2019-04-25T17:11:13.576Z,2.70
2019-04-25T17:13:52.476Z,2.42
2019-04-25T17:16:34.697Z,2.50
2019-04-25T17:19:09.987Z,2.60
2019-04-25T17:21:39.484Z,2.42
2019-04-25T17:24:10.993Z,2.45
2019-04-25T17:26:40.619Z,2.52
2019-04-25T17:29:15.103Z,2.20
2019-04-25T17:32:07.335Z,3.00
2019-04-25T17:34:51.492Z,3.02
2019-04-25T17:37:51.960Z,2.72
2019-04-25T17:40:25.217Z,3.10
2019-04-25T17:42:56.059Z,3.20
2019-04-25T17:45:29.692Z,3.40
2019-04-25T17:47:59.908Z,3.22
2019-04-25T17:50:29.205Z,3.00
2019-04-25T17:52:58.571Z,3.40
2019-04-25T17:55:27.922Z,3.42
2019-04-25T17:57:57.242Z,3.27
2019-04-25T18:00:33.774Z,3.15
2019-04-25T18:03:03.427Z,3.12
2019-04-25T18:05:32.845Z,3.70
2019-04-25T18:08:02.781Z,3.30
2019-04-25T18:10:34.191Z,3.30
2019-04-25T18:13:04.375Z,3.20
2019-04-25T18:15:50.548Z,2.83
2019-04-25T18:18:37.085Z,2.98
2019-04-25T18:21:06.591Z,2.40
2019-04-25T18:24:10.187Z,3.00
2019-04-25T18:27:02.722Z,2.80
2019-04-25T18:29:32.631Z,2.95
2019-04-25T18:32:02.541Z,2.85
2019-04-25T18:34:48.122Z,3.77
2019-04-25T18:37:37.283Z,3.10
2019-04-25T18:40:27.553Z,2.85
2019-04-25T18:43:14.083Z,3.60
2019-04-25T18:45:46.524Z,3.40
2019-04-25T18:48:15.852Z,3.60
2019-04-25T18:50:45.367Z,3.72
2019-04-25T18:53:33.642Z,2.98
2019-04-25T18:56:11.950Z,3.10
2019-04-25T18:59:02.042Z,3.25
2019-04-25T19:01:53.956Z,3.15
2019-04-25T19:04:36.258Z,3.20
2019-04-25T19:07:05.576Z,3.10
2019-04-25T19:09:34.902Z,2.92
2019-04-25T19:12:04.250Z,3.70
2019-04-25T19:14:33.583Z,3.10
2019-04-25T19:17:02.915Z,3.25
2019-04-25T19:19:32.178Z,3.10
2019-04-25T19:22:01.580Z,3.33
2019-04-25T19:24:32.907Z,3.17
2019-04-25T19:27:02.331Z,3.08
2019-04-25T19:29:31.789Z,3.62
2019-04-25T19:32:01.113Z,3.42
2019-04-25T19:34:30.420Z,4.00
2019-04-25T19:36:59.780Z,3.40
2019-04-25T19:39:31.045Z,3.80
2019-04-25T19:42:17.926Z,3.85
2019-04-25T19:44:47.353Z,3.10
2019-04-25T19:47:16.642Z,3.80
2019-04-25T19:49:45.924Z,3.15
2019-04-25T19:52:15.167Z,4.10
2019-04-25T19:54:45.189Z,7.37
2019-04-25T19:57:14.723Z,5.50
2019-04-25T19:59:44.671Z,4.15
2019-04-25T20:02:25.940Z,3.62
2019-04-25T20:05:05.872Z,3.98
2019-04-25T20:07:46.552Z,4.17
2019-04-25T20:10:30.992Z,4.22
2019-04-25T20:13:00.285Z,4.87
2019-04-25T20:15:29.630Z,4.87
2019-04-25T20:17:58.895Z,4.10
2019-04-25T20:20:29.443Z,3.52
2019-04-25T20:22:59.144Z,3.90
2019-04-25T20:25:28.531Z,4.17
2019-04-25T20:27:57.856Z,3.87
2019-04-25T20:30:27.189Z,3.58
2019-04-25T20:32:56.558Z,3.75
2019-04-25T20:35:25.920Z,3.67
2019-04-25T20:37:55.638Z,4.50
2019-04-25T20:40:25.029Z,4.60
2019-04-25T20:42:54.397Z,3.80
2019-04-25T20:45:24.043Z,4.97
2019-04-25T20:47:54.802Z,4.35
2019-04-25T20:50:24.196Z,4.05
2019-04-25T20:52:54.757Z,4.25
2019-04-25T20:55:24.566Z,4.85
2019-04-25T20:57:53.925Z,4.70
2019-04-25T21:00:44.624Z,4.40
2019-04-25T21:03:14.628Z,4.37
2019-04-25T21:05:45.873Z,3.90
2019-04-25T21:08:15.147Z,4.90
2019-04-25T21:10:44.493Z,4.65
2019-04-25T21:13:18.258Z,4.67
2019-04-25T21:15:56.176Z,5.00
2019-04-25T21:18:47.211Z,4.80
2019-04-25T21:21:17.372Z,4.47
2019-04-25T21:23:46.789Z,4.67
2019-04-25T21:26:16.118Z,4.87
2019-04-25T21:28:45.408Z,4.17
2019-04-25T21:31:14.895Z,5.55
2019-04-25T21:33:44.254Z,5.05
2019-04-25T21:36:13.832Z,4.87
2019-04-25T21:38:44.658Z,5.00
2019-04-25T21:41:41.513Z,4.60
2019-04-25T21:44:11.354Z,5.25
2019-04-25T21:46:41.370Z,5.42
2019-04-25T21:49:11.098Z,6.00
2019-04-25T21:51:40.404Z,5.47
2019-04-25T21:54:09.782Z,4.50
2019-04-25T21:56:40.216Z,5.22
2019-04-25T21:59:09.849Z,5.80
2019-04-25T22:01:41.314Z,5.42
2019-04-25T22:04:13.206Z,5.17
2019-04-25T22:06:45.331Z,4.60
2019-04-25T22:09:17.423Z,5.17
2019-04-25T22:11:46.973Z,5.10
2019-04-25T22:14:17.206Z,5.30
2019-04-25T22:16:46.986Z,5.07
2019-04-25T22:19:17.067Z,4.80
2019-04-25T22:21:46.854Z,5.10
2019-04-25T22:24:17.228Z,5.33
2019-04-25T22:26:48.181Z,5.13
2019-04-25T22:29:17.590Z,5.17
2019-04-25T22:31:54.578Z,4.85
2019-04-25T22:34:33.055Z,5.17
2019-04-25T22:37:02.386Z,5.00
2019-04-25T22:39:31.759Z,5.10
2019-04-25T22:42:01.987Z,5.07
2019-04-25T22:44:31.738Z,4.97
2019-04-25T22:47:02.314Z,5.00
2019-04-25T22:49:31.741Z,4.40
2019-04-25T22:52:01.764Z,4.63
2019-04-25T22:54:32.359Z,4.37
2019-04-25T22:57:02.965Z,4.63
2019-04-25T22:59:34.520Z,5.10
2019-04-25T23:02:21.591Z,4.50
2019-04-25T23:05:09.047Z,4.10
2019-04-25T23:07:30.798Z,4.83
2019-04-25T23:10:00.558Z,4.33
2019-04-25T23:12:31.210Z,4.67
2019-04-25T23:15:00.597Z,5.03
2019-04-25T23:17:30.223Z,4.47
2019-04-25T23:19:59.856Z,4.20
2019-04-25T23:22:29.318Z,4.63
2019-04-25T23:25:06.528Z,4.73
2019-04-25T23:27:44.605Z,8.57
2019-04-25T23:30:15.932Z,4.80
2019-04-25T23:32:45.314Z,5.63
2019-04-25T23:35:27.558Z,4.87
2019-04-25T23:37:45.874Z,5.53
2019-04-25T23:40:15.871Z,5.10
2019-04-25T23:42:45.379Z,5.07
2019-04-25T23:45:14.686Z,4.47
2019-04-25T23:47:43.982Z,4.97
2019-04-25T23:50:14.684Z,5.03
2019-04-25T23:52:44.138Z,5.60
2019-04-25T23:55:13.432Z,4.50
2019-04-25T23:57:42.788Z,4.97
